Terminal Aerodrome Forecast
Issued by NWS Springfield, MO

Home | Current Version | Previous Version | Graphics & Text | Print | Product List | Glossary On
Versions: 1 2 3 4 5 6 7 8 9 10 11 12 13
812
FTUS43 KSGF 301730
TAFSGF
TAF
KSGF 301730Z 3018/0118 36010KT P6SM FEW025
     FM302300 34005KT P6SM SCT110 SCT150
     FM011700 31005KT P6SM BKN070=

USA.gov is the U.S. government's official web portal to all federal, state and local government web resources and services.